Time;durP1;ratioP1;P1;durP2;ratioP2;P2;SDS_P1;SDS_P2;PMS_P1;PMS_P2;Temp;Humidity;BMP_temperature;BMP_pressure;BME280_temperature;BME280_humidity;BME280_pressure;Samples;Min_cycle;Max_cycle;Signal;HPM_P1;HPM_P2
2022/05/13 00:01:37;;;;;;;8.80;5.47;;;;;;;;;;5056271;28;20485;-67
2022/05/13 00:04:05;;;;;;;5.40;4.83;;;;;;;;;;5056282;28;20469;-67
2022/05/13 00:06:32;;;;;;;5.27;4.77;;;;;;;;;;5056098;28;20449;-67
2022/05/13 00:08:59;;;;;;;8.63;4.90;;;;;;;;;;5056488;28;20452;-67
2022/05/13 00:11:27;;;;;;;8.67;5.40;;;;;;;;;;5056000;28;20473;-67
2022/05/13 00:13:55;;;;;;;5.53;4.63;;;;;;;;;;5056071;28;20446;-67
2022/05/13 00:16:23;;;;;;;5.00;4.50;;;;;;;;;;5055891;28;20447;-67
2022/05/13 00:18:50;;;;;;;8.03;4.77;;;;;;;;;;5055948;28;20448;-67
2022/05/13 00:21:17;;;;;;;3.90;3.50;;;;;;;;;;5056503;28;20443;-68
2022/05/13 00:23:45;;;;;;;5.63;4.40;;;;;;;;;;5055953;28;20938;-67
2022/05/13 00:26:12;;;;;;;6.83;4.50;;;;;;;;;;5056412;28;20441;-67
2022/05/13 00:28:39;;;;;;;6.57;4.43;;;;;;;;;;5055762;28;20445;-67
2022/05/13 00:31:08;;;;;;;5.90;4.10;;;;;;;;;;5055803;28;20481;-67
2022/05/13 00:33:35;;;;;;;6.30;4.40;;;;;;;;;;5055833;28;20875;-67
2022/05/13 00:36:03;;;;;;;12.40;4.90;;;;;;;;;;5055522;28;20445;-67
2022/05/13 00:38:30;;;;;;;5.63;5.00;;;;;;;;;;5055617;28;20442;-67
2022/05/13 00:40:57;;;;;;;6.40;4.40;;;;;;;;;;5055111;28;20954;-67
2022/05/13 00:43:44;;;;;;;5.37;4.93;;;;;;;;;;5055507;28;20437;-67
2022/05/13 00:46:13;;;;;;;5.07;4.50;;;;;;;;;;5053952;28;20436;-67
2022/05/13 00:48:40;;;;;;;10.10;5.20;;;;;;;;;;5055440;28;20441;-67
2022/05/13 00:51:09;;;;;;;6.70;5.70;;;;;;;;;;5055165;28;20482;-67
2022/05/13 00:53:36;;;;;;;8.20;5.53;;;;;;;;;;5055240;28;20448;-67
2022/05/13 00:56:04;;;;;;;6.70;5.90;;;;;;;;;;5054857;28;20460;-67
2022/05/13 00:58:33;;;;;;;10.00;6.70;;;;;;;;;;5055490;28;20433;-67
2022/05/13 01:01:00;;;;;;;8.83;8.03;;;;;;;;;;5055051;28;20457;-67
2022/05/13 01:03:29;;;;;;;9.70;7.97;;;;;;;;;;5055074;28;20433;-67
2022/05/13 01:05:57;;;;;;;8.63;7.83;;;;;;;;;;5055080;28;20437;-67
2022/05/13 01:08:25;;;;;;;14.03;9.30;;;;;;;;;;5054788;28;20747;-67
2022/05/13 01:10:54;;;;;;;9.13;7.90;;;;;;;;;;5054960;28;20484;-67
2022/05/13 01:13:23;;;;;;;13.10;9.33;;;;;;;;;;5054881;28;20434;-67
2022/05/13 01:15:51;;;;;;;9.70;8.80;;;;;;;;;;5054840;28;20536;-67
2022/05/13 01:18:25;;;;;;;10.50;9.27;;;;;;;;;;5054556;28;20441;-67
2022/05/13 01:20:53;;;;;;;14.20;9.90;;;;;;;;;;5055724;28;20450;-67
2022/05/13 01:23:23;;;;;;;11.43;10.40;;;;;;;;;;5054379;28;20446;-67
2022/05/13 01:25:52;;;;;;;12.30;11.10;;;;;;;;;;5054408;28;20447;-67
2022/05/13 01:28:21;;;;;;;11.70;10.50;;;;;;;;;;5054133;28;20821;-67
2022/05/13 01:30:49;;;;;;;11.80;10.60;;;;;;;;;;5054852;28;20544;-67
2022/05/13 01:33:17;;;;;;;12.73;11.57;;;;;;;;;;5054460;28;20452;-68
2022/05/13 01:35:46;;;;;;;15.80;11.10;;;;;;;;;;5054472;28;20438;-67
2022/05/13 01:38:14;;;;;;;11.47;10.37;;;;;;;;;;5054595;28;20468;-67
2022/05/13 01:40:43;;;;;;;11.67;10.57;;;;;;;;;;5054399;28;20468;-67
2022/05/13 01:43:11;;;;;;;13.00;11.03;;;;;;;;;;5054577;28;20449;-67
2022/05/13 01:45:38;;;;;;;12.33;10.80;;;;;;;;;;5054345;28;20639;-67
2022/05/13 01:48:07;;;;;;;10.93;10.03;;;;;;;;;;5054225;28;21017;-67
2022/05/13 01:50:35;;;;;;;10.27;9.30;;;;;;;;;;5053840;28;20473;-67
2022/05/13 01:53:03;;;;;;;11.03;9.97;;;;;;;;;;5054371;28;20437;-67
2022/05/13 01:55:30;;;;;;;13.00;10.60;;;;;;;;;;5053630;28;20442;-67
2022/05/13 01:57:59;;;;;;;11.07;10.00;;;;;;;;;;5053882;28;20442;-67
2022/05/13 02:00:27;;;;;;;10.60;9.57;;;;;;;;;;5053910;28;20894;-67
2022/05/13 02:05:39;;;;;;;10.00;9.20;;;;;;;;;;5053841;28;20526;-67
2022/05/13 02:08:07;;;;;;;10.57;9.60;;;;;;;;;;5054159;28;20441;-67
2022/05/13 02:10:34;;;;;;;9.53;8.63;;;;;;;;;;5053814;28;20559;-68
2022/05/13 02:13:03;;;;;;;10.60;9.43;;;;;;;;;;5053443;28;20450;-67
2022/05/13 02:15:30;;;;;;;10.30;9.40;;;;;;;;;;5054006;28;20530;-68
2022/05/13 02:17:57;;;;;;;10.80;9.80;;;;;;;;;;5053346;28;20441;-68
2022/05/13 02:20:25;;;;;;;11.20;9.10;;;;;;;;;;5053412;28;20485;-68
2022/05/13 02:22:52;;;;;;;12.63;8.90;;;;;;;;;;5053884;28;21021;-68
2022/05/13 02:25:19;;;;;;;9.60;8.70;;;;;;;;;;5053615;28;20449;-68
2022/05/13 02:27:47;;;;;;;9.63;8.40;;;;;;;;;;5054224;28;20463;-68
2022/05/13 02:30:16;;;;;;;16.63;9.87;;;;;;;;;;5053407;28;21034;-68
2022/05/13 02:32:43;;;;;;;10.03;9.13;;;;;;;;;;5053012;28;20477;-68
2022/05/13 02:35:11;;;;;;;9.37;7.93;;;;;;;;;;5053579;28;20797;-69
2022/05/13 02:43:27;;;;;;;8.57;7.67;;;;;;;;;;5053412;28;20460;-68
2022/05/13 02:45:55;;;;;;;11.70;7.33;;;;;;;;;;5053099;28;20452;-69
2022/05/13 02:48:22;;;;;;;15.80;7.93;;;;;;;;;;5053033;28;20457;-68
2022/05/13 02:50:50;;;;;;;13.70;7.73;;;;;;;;;;5053107;28;20543;-68
2022/05/13 02:53:17;;;;;;;11.17;7.27;;;;;;;;;;5052965;28;20953;-68
2022/05/13 02:55:44;;;;;;;8.50;6.97;;;;;;;;;;5053376;28;20446;-68
2022/05/13 02:58:11;;;;;;;8.60;7.17;;;;;;;;;;5053249;28;20798;-68
2022/05/13 03:00:39;;;;;;;6.80;6.20;;;;;;;;;;5053676;28;20445;-68
2022/05/13 03:03:08;;;;;;;7.17;6.47;;;;;;;;;;5053313;28;20508;-68
2022/05/13 03:05:35;;;;;;;6.63;5.80;;;;;;;;;;5053568;28;20492;-68
2022/05/13 03:08:02;;;;;;;6.77;6.17;;;;;;;;;;5053789;28;20442;-68
2022/05/13 03:10:30;;;;;;;8.13;6.00;;;;;;;;;;5057250;28;20459;-68
2022/05/13 03:12:57;;;;;;;10.33;6.43;;;;;;;;;;5056821;28;20450;-68
2022/05/13 03:15:25;;;;;;;6.47;5.47;;;;;;;;;;5056849;28;20444;-68
2022/05/13 03:17:52;;;;;;;9.18;5.55;;;;;;;;;;5057130;28;20527;-68
2022/05/13 03:20:22;;;;;;;7.57;5.73;;;;;;;;;;5056943;28;20195;-68
2022/05/13 03:22:51;;;;;;;6.23;5.63;;;;;;;;;;5057034;28;20449;-68
2022/05/13 03:25:18;;;;;;;9.25;6.18;;;;;;;;;;5056576;28;20490;-68
2022/05/13 03:27:46;;;;;;;5.78;5.28;;;;;;;;;;5056910;28;20290;-68
2022/05/13 03:30:15;;;;;;;6.00;5.40;;;;;;;;;;5056853;28;20541;-68
2022/05/13 03:32:42;;;;;;;6.00;4.70;;;;;;;;;;5057093;28;20481;-68
2022/05/13 03:35:11;;;;;;;10.63;5.33;;;;;;;;;;5056829;28;20525;-69
2022/05/13 03:37:40;;;;;;;5.80;5.22;;;;;;;;;;5056464;28;20437;-68
2022/05/13 03:40:07;;;;;;;8.40;5.43;;;;;;;;;;5056602;28;20195;-68
2022/05/13 03:42:37;;;;;;;7.13;4.30;;;;;;;;;;5056368;28;20456;-69
2022/05/13 03:45:04;;;;;;;8.27;4.57;;;;;;;;;;5056558;28;20438;-69
2022/05/13 03:47:32;;;;;;;6.50;4.37;;;;;;;;;;5056606;28;20206;-69
2022/05/13 03:49:59;;;;;;;12.13;4.80;;;;;;;;;;5056183;28;20445;-69
2022/05/13 03:52:27;;;;;;;5.70;4.10;;;;;;;;;;5055554;28;20477;-69
2022/05/13 03:54:56;;;;;;;5.50;4.37;;;;;;;;;;5056039;28;20441;-69
2022/05/13 03:57:24;;;;;;;8.73;4.07;;;;;;;;;;5056119;28;20445;-69
2022/05/13 03:59:51;;;;;;;11.17;4.97;;;;;;;;;;5056155;28;20814;-69
2022/05/13 04:02:18;;;;;;;4.80;4.40;;;;;;;;;;5056972;28;20477;-69
2022/05/13 04:10:22;;;;;;;4.10;3.70;;;;;;;;;;5055912;28;20443;-69
2022/05/13 04:18:19;;;;;;;4.15;3.50;;;;;;;;;;5055876;28;20425;-68
2022/05/13 04:20:47;;;;;;;5.95;4.53;;;;;;;;;;5055652;28;20312;-69
2022/05/13 04:23:14;;;;;;;6.70;4.32;;;;;;;;;;5055795;28;20237;-69
2022/05/13 04:25:43;;;;;;;11.23;4.60;;;;;;;;;;5055897;28;20195;-69
2022/05/13 04:28:10;;;;;;;7.77;3.30;;;;;;;;;;5055874;28;20222;-69
2022/05/13 04:30:37;;;;;;;8.83;4.00;;;;;;;;;;5055782;28;20437;-69
2022/05/13 04:33:05;;;;;;;4.63;3.57;;;;;;;;;;5055636;28;20483;-70
2022/05/13 04:35:32;;;;;;;7.60;3.60;;;;;;;;;;5055549;28;20456;-70
2022/05/13 04:37:59;;;;;;;6.27;3.60;;;;;;;;;;5056422;28;20523;-69
2022/05/13 04:40:27;;;;;;;6.43;4.17;;;;;;;;;;5055519;28;20524;-69
2022/05/13 04:42:55;;;;;;;5.37;3.50;;;;;;;;;;5055618;28;20445;-68
2022/05/13 04:45:24;;;;;;;7.33;3.47;;;;;;;;;;5055524;28;20441;-69
2022/05/13 04:50:41;;;;;;;5.10;4.17;;;;;;;;;;5055273;28;20404;-69
2022/05/13 04:53:09;;;;;;;7.60;3.77;;;;;;;;;;5054855;28;20477;-69
2022/05/13 04:55:36;;;;;;;7.87;3.60;;;;;;;;;;5055466;28;20442;-69
2022/05/13 04:58:05;;;;;;;8.87;4.60;;;;;;;;;;5054905;28;20444;-69
2022/05/13 05:00:32;;;;;;;10.70;3.30;;;;;;;;;;5055464;28;20452;-68
2022/05/13 05:03:00;;;;;;;11.50;3.53;;;;;;;;;;5055368;28;20571;-68
2022/05/13 05:05:28;;;;;;;5.73;4.17;;;;;;;;;;5054699;28;20481;-68
2022/05/13 05:07:55;;;;;;;7.70;3.67;;;;;;;;;;5054765;28;20449;-69
2022/05/13 05:10:22;;;;;;;9.17;3.57;;;;;;;;;;5054905;28;20865;-69
2022/05/13 05:12:49;;;;;;;8.27;3.70;;;;;;;;;;5054645;28;20552;-69
2022/05/13 05:15:18;;;;;;;6.60;3.70;;;;;;;;;;5055057;28;20437;-69
2022/05/13 05:17:45;;;;;;;5.90;3.60;;;;;;;;;;5054778;28;20552;-69
2022/05/13 05:20:14;;;;;;;5.80;4.13;;;;;;;;;;5054737;28;20795;-69
2022/05/13 05:22:44;;;;;;;8.73;4.07;;;;;;;;;;5054448;28;20457;-67
2022/05/13 05:25:12;;;;;;;9.70;3.43;;;;;;;;;;5054638;28;20448;-65
2022/05/13 05:27:39;;;;;;;10.07;4.20;;;;;;;;;;5054358;28;20456;-64
2022/05/13 05:30:07;;;;;;;5.07;3.37;;;;;;;;;;5054503;28;20489;-64
2022/05/13 05:32:37;;;;;;;8.90;3.87;;;;;;;;;;5053647;28;20481;-64
2022/05/13 05:35:05;;;;;;;7.27;3.60;;;;;;;;;;5054496;28;20805;-64
2022/05/13 05:37:33;;;;;;;7.73;3.70;;;;;;;;;;5054399;28;20445;-64
2022/05/13 05:40:00;;;;;;;7.73;3.47;;;;;;;;;;5053904;28;20548;-64
2022/05/13 05:42:27;;;;;;;8.70;4.27;;;;;;;;;;5054613;28;20448;-64
2022/05/13 05:44:54;;;;;;;15.60;5.03;;;;;;;;;;5054052;28;20441;-65
2022/05/13 05:47:22;;;;;;;9.17;4.80;;;;;;;;;;5053989;28;20440;-64
2022/05/13 05:49:50;;;;;;;6.10;4.30;;;;;;;;;;5054485;28;20911;-65
2022/05/13 05:52:18;;;;;;;13.53;4.13;;;;;;;;;;5054066;28;20818;-65
2022/05/13 05:57:30;;;;;;;12.30;5.27;;;;;;;;;;5053905;28;20459;-65
2022/05/13 05:59:57;;;;;;;42.90;6.30;;;;;;;;;;5054440;28;20451;-65
2022/05/13 06:02:25;;;;;;;12.47;6.10;;;;;;;;;;5054286;28;20469;-65
2022/05/13 06:04:53;;;;;;;12.30;5.93;;;;;;;;;;5054059;28;20438;-65
2022/05/13 06:07:20;;;;;;;9.27;4.20;;;;;;;;;;5053872;28;20445;-65
2022/05/13 06:09:47;;;;;;;6.70;5.80;;;;;;;;;;5054089;28;20450;-65
2022/05/13 06:12:16;;;;;;;18.67;7.83;;;;;;;;;;5053451;28;20473;-65
2022/05/13 06:14:43;;;;;;;10.67;5.33;;;;;;;;;;5053892;28;20537;-65
2022/05/13 06:17:11;;;;;;;16.57;6.27;;;;;;;;;;5053733;28;20441;-65
2022/05/13 06:19:38;;;;;;;11.57;5.70;;;;;;;;;;5053415;28;20437;-65
2022/05/13 06:22:07;;;;;;;14.10;6.50;;;;;;;;;;5053605;28;20460;-65
2022/05/13 06:24:34;;;;;;;12.27;6.40;;;;;;;;;;5053684;28;20451;-65
2022/05/13 06:27:01;;;;;;;11.17;4.83;;;;;;;;;;5053264;28;20599;-65
2022/05/13 06:29:28;;;;;;;13.60;6.83;;;;;;;;;;5053639;28;20803;-65
2022/05/13 06:31:58;;;;;;;15.50;6.37;;;;;;;;;;5053605;28;20481;-65
2022/05/13 06:34:26;;;;;;;11.90;6.40;;;;;;;;;;5053820;28;20436;-65
2022/05/13 06:36:53;;;;;;;15.87;7.17;;;;;;;;;;5053444;28;20533;-65
2022/05/13 06:39:22;;;;;;;21.73;7.43;;;;;;;;;;5053448;28;20456;-65
2022/05/13 06:41:49;;;;;;;8.50;5.20;;;;;;;;;;5053296;28;20468;-65
2022/05/13 06:44:18;;;;;;;10.20;6.13;;;;;;;;;;5053473;28;20463;-65
2022/05/13 06:46:47;;;;;;;13.03;5.57;;;;;;;;;;5053418;28;20484;-65
2022/05/13 06:49:15;;;;;;;12.23;4.90;;;;;;;;;;5053439;28;20532;-65
2022/05/13 06:51:42;;;;;;;8.13;5.50;;;;;;;;;;5053400;28;20469;-66
2022/05/13 06:54:10;;;;;;;9.13;5.70;;;;;;;;;;5053040;28;20444;-65
2022/05/13 06:56:40;;;;;;;13.73;6.13;;;;;;;;;;5052943;28;20437;-65
2022/05/13 06:59:07;;;;;;;13.03;5.60;;;;;;;;;;5053069;28;20968;-66
2022/05/13 07:01:34;;;;;;;10.60;5.90;;;;;;;;;;5053137;28;20568;-65
2022/05/13 07:04:02;;;;;;;9.57;5.70;;;;;;;;;;5053597;28;20437;-65
2022/05/13 07:06:29;;;;;;;21.70;6.23;;;;;;;;;;5052856;28;20448;-66
2022/05/13 07:08:56;;;;;;;10.67;5.93;;;;;;;;;;5053604;28;20543;-66
2022/05/13 07:11:24;;;;;;;16.10;6.40;;;;;;;;;;5053085;28;20445;-65
2022/05/13 07:13:52;;;;;;;11.23;6.40;;;;;;;;;;5052810;28;20987;-66
2022/05/13 07:16:19;;;;;;;11.47;6.07;;;;;;;;;;5053108;28;20438;-66
2022/05/13 07:18:47;;;;;;;14.13;5.73;;;;;;;;;;5053114;28;20441;-66
2022/05/13 07:21:15;;;;;;;13.80;6.13;;;;;;;;;;5052771;28;20453;-66
2022/05/13 07:23:42;;;;;;;10.37;5.50;;;;;;;;;;5053142;28;20476;-66
2022/05/13 07:26:10;;;;;;;7.60;5.47;;;;;;;;;;5053151;28;20924;-66
2022/05/13 07:28:38;;;;;;;17.73;5.60;;;;;;;;;;5052699;28;20434;-65
2022/05/13 07:31:07;;;;;;;9.13;5.47;;;;;;;;;;5052744;28;20461;-65
2022/05/13 07:33:35;;;;;;;10.23;5.67;;;;;;;;;;5052608;28;20527;-66
2022/05/13 07:36:02;;;;;;;9.27;5.07;;;;;;;;;;5052677;28;20446;-65
2022/05/13 07:38:30;;;;;;;8.77;5.37;;;;;;;;;;5052955;28;20454;-66
2022/05/13 07:43:48;;;;;;;13.27;5.70;;;;;;;;;;5037157;28;20429;-66
2022/05/13 07:46:16;;;;;;;9.30;5.60;;;;;;;;;;5052921;28;20443;-66
2022/05/13 07:48:44;;;;;;;12.03;5.83;;;;;;;;;;5052771;28;20794;-65
2022/05/13 07:51:11;;;;;;;15.80;6.30;;;;;;;;;;5052834;28;20529;-65
2022/05/13 07:53:39;;;;;;;14.63;6.03;;;;;;;;;;5052375;28;21081;-66
2022/05/13 07:56:06;;;;;;;12.63;6.53;;;;;;;;;;5056097;28;20446;-66
2022/05/13 07:58:33;;;;;;;10.67;6.33;;;;;;;;;;5056329;28;20447;-66
2022/05/13 08:01:01;;;;;;;8.53;5.10;;;;;;;;;;5055861;28;20455;-64
2022/05/13 08:03:31;;;;;;;18.13;5.50;;;;;;;;;;5056223;28;20434;-64
2022/05/13 08:06:03;;;;;;;8.77;4.80;;;;;;;;;;5055988;28;20994;-65
2022/05/13 08:08:31;;;;;;;5.90;4.80;;;;;;;;;;5056196;28;20440;-65
2022/05/13 08:11:00;;;;;;;14.00;4.93;;;;;;;;;;5056159;28;20995;-65
2022/05/13 08:13:29;;;;;;;8.70;3.93;;;;;;;;;;5056116;28;20470;-65
2022/05/13 08:15:56;;;;;;;13.77;4.50;;;;;;;;;;5055712;28;20482;-65
2022/05/13 08:18:24;;;;;;;8.17;3.80;;;;;;;;;;5055656;28;20850;-65
2022/05/13 08:20:52;;;;;;;8.03;4.83;;;;;;;;;;5055643;28;20531;-64
2022/05/13 08:23:20;;;;;;;7.07;4.13;;;;;;;;;;5056020;28;20443;-65
2022/05/13 08:25:47;;;;;;;7.50;4.57;;;;;;;;;;5056734;28;20446;-65
2022/05/13 08:28:15;;;;;;;12.77;5.00;;;;;;;;;;5055477;28;20807;-64
2022/05/13 08:30:43;;;;;;;9.50;5.50;;;;;;;;;;5055986;28;20460;-65
2022/05/13 08:33:10;;;;;;;9.10;5.40;;;;;;;;;;5055772;28;20931;-65
2022/05/13 08:35:38;;;;;;;11.00;5.13;;;;;;;;;;5056276;28;20443;-65
2022/05/13 08:38:07;;;;;;;9.97;4.60;;;;;;;;;;5055982;28;20891;-65
2022/05/13 08:40:40;;;;;;;8.60;4.30;;;;;;;;;;5055692;28;20491;-65
2022/05/13 08:43:10;;;;;;;13.53;5.10;;;;;;;;;;5055890;28;20430;-65
2022/05/13 08:45:40;;;;;;;9.67;4.80;;;;;;;;;;5055766;28;20435;-65
2022/05/13 08:48:09;;;;;;;7.63;4.80;;;;;;;;;;5055804;28;20434;-65
2022/05/13 08:50:38;;;;;;;7.53;5.10;;;;;;;;;;5055671;28;20544;-65
2022/05/13 08:53:11;;;;;;;9.37;4.90;;;;;;;;;;5054966;28;21008;-65
2022/05/13 08:55:43;;;;;;;13.17;4.53;;;;;;;;;;5055471;28;20433;-65
2022/05/13 08:58:13;;;;;;;10.50;5.30;;;;;;;;;;5054939;28;20496;-65
2022/05/13 09:00:41;;;;;;;10.73;5.27;;;;;;;;;;5054924;28;20541;-65
2022/05/13 09:03:12;;;;;;;9.70;4.70;;;;;;;;;;5055162;28;20530;-65
2022/05/13 09:05:43;;;;;;;10.93;5.40;;;;;;;;;;5054133;28;20522;-65
2022/05/13 09:08:12;;;;;;;9.40;4.93;;;;;;;;;;5055229;28;20515;-65
2022/05/13 09:10:54;;;;;;;9.30;4.80;;;;;;;;;;5054731;28;20450;-65
2022/05/13 09:13:27;;;;;;;8.77;4.50;;;;;;;;;;5054627;28;20502;-65
2022/05/13 09:15:56;;;;;;;8.00;4.47;;;;;;;;;;5055138;28;20437;-65
2022/05/13 09:18:25;;;;;;;8.10;4.50;;;;;;;;;;5054823;28;20453;-65
2022/05/13 09:20:56;;;;;;;7.47;4.70;;;;;;;;;;5054807;28;20909;-65
2022/05/13 09:23:26;;;;;;;6.13;4.10;;;;;;;;;;5055416;28;20438;-65
2022/05/13 09:26:03;;;;;;;7.50;4.53;;;;;;;;;;5054668;28;20449;-65
2022/05/13 09:28:31;;;;;;;7.63;4.20;;;;;;;;;;5054812;28;20782;-65
2022/05/13 09:31:05;;;;;;;6.77;4.70;;;;;;;;;;5054546;28;20445;-66
2022/05/13 09:33:33;;;;;;;16.00;5.00;;;;;;;;;;5054758;28;20475;-65
2022/05/13 09:36:02;;;;;;;7.60;3.70;;;;;;;;;;5054562;28;20448;-65
2022/05/13 09:38:31;;;;;;;6.83;4.40;;;;;;;;;;5054229;28;20442;-65
2022/05/13 09:41:01;;;;;;;8.03;3.97;;;;;;;;;;5054113;28;20455;-65
2022/05/13 09:43:36;;;;;;;5.30;3.50;;;;;;;;;;5054309;28;20453;-66
2022/05/13 09:46:07;;;;;;;4.30;3.87;;;;;;;;;;5054043;28;20858;-65
2022/05/13 09:48:36;;;;;;;7.67;4.33;;;;;;;;;;5054011;28;20432;-65
2022/05/13 09:51:20;;;;;;;8.50;4.37;;;;;;;;;;5054266;28;20475;-66
2022/05/13 09:54:01;;;;;;;7.27;4.10;;;;;;;;;;5054069;28;20469;-66
2022/05/13 09:56:35;;;;;;;6.57;3.80;;;;;;;;;;5054186;28;20437;-66
2022/05/13 09:59:06;;;;;;;11.77;4.53;;;;;;;;;;5054516;28;20771;-66
2022/05/13 10:01:33;;;;;;;8.00;3.87;;;;;;;;;;5054377;28;20481;-65
2022/05/13 10:04:08;;;;;;;9.80;4.50;;;;;;;;;;5054083;28;20523;-66
2022/05/13 10:06:36;;;;;;;8.47;4.90;;;;;;;;;;5054521;28;20887;-66
2022/05/13 10:14:37;;;;;;;5.90;4.90;;;;;;;;;;5053704;28;20975;-66
2022/05/13 10:17:09;;;;;;;8.13;5.80;;;;;;;;;;5053974;28;20798;-66
2022/05/13 10:19:38;;;;;;;7.20;4.93;;;;;;;;;;5054173;28;20430;-65
2022/05/13 10:22:11;;;;;;;9.47;5.27;;;;;;;;;;5054346;28;20472;-65
2022/05/13 10:24:42;;;;;;;8.50;4.87;;;;;;;;;;5054053;28;20505;-66
2022/05/13 10:27:11;;;;;;;11.10;5.20;;;;;;;;;;5054165;28;20515;-65
2022/05/13 10:29:40;;;;;;;9.60;5.30;;;;;;;;;;5053273;28;20452;-65
2022/05/13 10:32:09;;;;;;;5.90;5.30;;;;;;;;;;5053294;28;21123;-65
2022/05/13 10:34:38;;;;;;;9.70;5.83;;;;;;;;;;5053064;28;20481;-64
2022/05/13 10:37:09;;;;;;;8.00;5.70;;;;;;;;;;5053598;28;20484;-65
2022/05/13 10:39:43;;;;;;;7.73;5.60;;;;;;;;;;5053477;28;20430;-65
2022/05/13 10:42:13;;;;;;;16.13;6.20;;;;;;;;;;5053600;28;20426;-65
2022/05/13 10:44:43;;;;;;;7.90;5.83;;;;;;;;;;5053346;28;20451;-65
2022/05/13 10:47:13;;;;;;;11.80;6.40;;;;;;;;;;5054173;28;20426;-65
2022/05/13 10:49:42;;;;;;;10.90;6.23;;;;;;;;;;5053074;28;20436;-65
2022/05/13 10:52:14;;;;;;;10.97;5.87;;;;;;;;;;5053742;28;20478;-65
2022/05/13 10:54:47;;;;;;;9.50;6.17;;;;;;;;;;5053384;28;20473;-66
2022/05/13 10:57:24;;;;;;;10.70;6.00;;;;;;;;;;5053487;28;20782;-65
2022/05/13 10:59:59;;;;;;;6.70;6.20;;;;;;;;;;5053401;28;20766;-65
2022/05/13 11:02:39;;;;;;;13.00;6.60;;;;;;;;;;5053610;28;20568;-65
2022/05/13 11:05:10;;;;;;;7.53;6.30;;;;;;;;;;5053753;28;20437;-66
2022/05/13 11:07:42;;;;;;;9.40;6.30;;;;;;;;;;5053326;28;20435;-65
2022/05/13 11:10:16;;;;;;;9.03;6.03;;;;;;;;;;5053243;28;20426;-65
2022/05/13 11:12:46;;;;;;;9.20;5.70;;;;;;;;;;5052969;28;20430;-65
2022/05/13 11:15:18;;;;;;;7.00;6.30;;;;;;;;;;5053405;28;20481;-65
2022/05/13 11:17:49;;;;;;;11.80;6.60;;;;;;;;;;5053248;28;20933;-66
2022/05/13 11:20:24;;;;;;;9.67;6.73;;;;;;;;;;5053330;28;20442;-65
2022/05/13 11:22:58;;;;;;;12.73;6.37;;;;;;;;;;5053507;28;20471;-66
2022/05/13 11:28:35;;;;;;;8.60;6.20;;;;;;;;;;5052971;28;20494;-65
2022/05/13 11:31:04;;;;;;;12.07;6.80;;;;;;;;;;5055907;28;20445;-65
2022/05/13 11:33:37;;;;;;;7.20;6.17;;;;;;;;;;5056621;28;21037;-65
2022/05/13 11:36:22;;;;;;;10.57;6.37;;;;;;;;;;5056905;28;20438;-68
2022/05/13 11:38:59;;;;;;;9.83;7.43;;;;;;;;;;5046791;28;20478;-68
2022/05/13 11:41:32;;;;;;;10.50;7.27;;;;;;;;;;5056819;28;20457;-67
2022/05/13 11:44:01;;;;;;;9.30;5.37;;;;;;;;;;5056378;28;20939;-70
2022/05/13 11:46:48;;;;;;;6.27;5.70;;;;;;;;;;5056281;28;20937;-70
2022/05/13 11:49:20;;;;;;;10.90;5.83;;;;;;;;;;5056838;28;20832;-71
2022/05/13 11:51:47;;;;;;;6.90;5.07;;;;;;;;;;5056608;28;20515;-69
2022/05/13 11:54:19;;;;;;;14.43;5.80;;;;;;;;;;5056142;28;20478;-69
2022/05/13 11:56:48;;;;;;;6.23;5.60;;;;;;;;;;5056478;28;20442;-71
2022/05/13 11:59:36;;;;;;;6.30;5.50;;;;;;;;;;5056414;28;20437;-72
2022/05/13 12:02:13;;;;;;;9.20;5.30;;;;;;;;;;5050774;28;20514;-71
2022/05/13 12:05:01;;;;;;;7.00;4.80;;;;;;;;;;5056799;28;20512;-71
2022/05/13 12:07:30;;;;;;;7.90;5.80;;;;;;;;;;5056014;28;20430;-72
2022/05/13 12:09:59;;;;;;;6.60;5.20;;;;;;;;;;5055889;28;20444;-72
2022/05/13 12:12:44;;;;;;;11.60;5.27;;;;;;;;;;5055814;28;20456;-71
2022/05/13 12:15:15;;;;;;;14.60;5.60;;;;;;;;;;5056679;28;20467;-71
2022/05/13 12:17:47;;;;;;;6.27;5.00;;;;;;;;;;5055896;28;20916;-72
2022/05/13 12:20:18;;;;;;;9.27;4.80;;;;;;;;;;5056445;28;20434;-72
2022/05/13 12:22:49;;;;;;;11.23;4.17;;;;;;;;;;5056049;28;20434;-71
2022/05/13 12:25:32;;;;;;;6.33;4.80;;;;;;;;;;5055644;28;20438;-71
2022/05/13 12:28:05;;;;;;;4.93;4.53;;;;;;;;;;5055112;28;20446;-71
2022/05/13 12:30:33;;;;;;;7.13;4.87;;;;;;;;;;5055486;28;20458;-71
2022/05/13 12:33:15;;;;;;;4.67;4.30;;;;;;;;;;5055707;28;20932;-71
2022/05/13 12:38:28;;;;;;;7.93;4.73;;;;;;;;;;5055739;28;20497;-71
2022/05/13 12:41:09;;;;;;;6.17;4.17;;;;;;;;;;5055023;28;21092;-72
2022/05/13 12:43:48;;;;;;;6.70;4.77;;;;;;;;;;5055279;28;20436;-71
2022/05/13 12:46:18;;;;;;;4.73;4.23;;;;;;;;;;5055134;28;20835;-71
2022/05/13 12:49:04;;;;;;;11.13;4.20;;;;;;;;;;5055429;28;20538;-71
2022/05/13 12:51:47;;;;;;;9.83;3.70;;;;;;;;;;5055330;28;20461;-72
2022/05/13 12:54:17;;;;;;;4.50;3.50;;;;;;;;;;5055331;28;20470;-71
2022/05/13 12:56:48;;;;;;;4.87;4.07;;;;;;;;;;5055226;28;20945;-71
2022/05/13 12:59:18;;;;;;;7.70;4.33;;;;;;;;;;5054989;28;20444;-71
2022/05/13 13:01:48;;;;;;;9.37;4.47;;;;;;;;;;5054701;28;20474;-71
2022/05/13 13:04:17;;;;;;;7.40;3.97;;;;;;;;;;5054864;28;20443;-71
2022/05/13 13:06:46;;;;;;;5.60;4.43;;;;;;;;;;5055331;28;20478;-71
2022/05/13 13:09:24;;;;;;;5.57;4.67;;;;;;;;;;5054745;28;20451;-70
2022/05/13 13:11:55;;;;;;;8.73;5.20;;;;;;;;;;5054614;28;20443;-71
2022/05/13 13:14:37;;;;;;;4.13;3.73;;;;;;;;;;5055053;28;20471;-71
2022/05/13 13:17:05;;;;;;;6.10;4.20;;;;;;;;;;5055170;28;20516;-71
2022/05/13 13:19:33;;;;;;;7.00;4.33;;;;;;;;;;5054814;28;20805;-72
2022/05/13 13:22:01;;;;;;;4.70;4.20;;;;;;;;;;5054725;28;20448;-71
2022/05/13 13:24:30;;;;;;;4.80;4.10;;;;;;;;;;5054715;28;20443;-71
2022/05/13 13:26:58;;;;;;;7.57;4.30;;;;;;;;;;5054267;28;20449;-71
2022/05/13 13:29:27;;;;;;;8.13;4.10;;;;;;;;;;5054679;28;20443;-71
2022/05/13 13:31:55;;;;;;;9.13;4.43;;;;;;;;;;5054021;28;20536;-71
2022/05/13 13:34:24;;;;;;;6.93;3.90;;;;;;;;;;5054533;28;20486;-71
2022/05/13 13:36:52;;;;;;;9.33;4.73;;;;;;;;;;5054113;28;20525;-71
2022/05/13 13:39:21;;;;;;;4.30;3.50;;;;;;;;;;5054503;28;20489;-71
2022/05/13 13:41:49;;;;;;;7.93;4.23;;;;;;;;;;5054985;28;20909;-71
2022/05/13 13:44:16;;;;;;;7.63;3.80;;;;;;;;;;5053877;28;20990;-71
2022/05/13 13:46:48;;;;;;;6.47;4.10;;;;;;;;;;5054134;28;20802;-71
2022/05/13 13:49:18;;;;;;;3.93;3.63;;;;;;;;;;5054424;28;20424;-71
2022/05/13 13:51:48;;;;;;;5.57;3.60;;;;;;;;;;5053623;28;20501;-71
2022/05/13 13:54:18;;;;;;;9.23;3.60;;;;;;;;;;5054802;28;20491;-71
2022/05/13 13:56:49;;;;;;;8.00;3.87;;;;;;;;;;5054017;28;20439;-71
2022/05/13 13:59:19;;;;;;;7.30;4.10;;;;;;;;;;5054245;28;20451;-71
2022/05/13 14:01:50;;;;;;;8.17;4.40;;;;;;;;;;5053842;28;20514;-71
2022/05/13 14:04:19;;;;;;;5.03;3.20;;;;;;;;;;5053947;28;20431;-71
2022/05/13 14:06:47;;;;;;;10.03;3.73;;;;;;;;;;5053975;28;20439;-71
2022/05/13 14:09:16;;;;;;;5.23;3.33;;;;;;;;;;5054037;28;20439;-71
2022/05/13 14:11:44;;;;;;;6.63;3.50;;;;;;;;;;5053971;28;20448;-71
2022/05/13 14:14:11;;;;;;;4.40;3.60;;;;;;;;;;5053491;28;20966;-71
2022/05/13 14:16:44;;;;;;;4.67;3.60;;;;;;;;;;5053573;28;20999;-71
2022/05/13 14:19:19;;;;;;;7.10;3.30;;;;;;;;;;5053836;28;20436;-72
2022/05/13 14:21:48;;;;;;;5.17;3.20;;;;;;;;;;5054014;28;20790;-71
2022/05/13 14:24:15;;;;;;;7.07;3.83;;;;;;;;;;5053743;28;20533;-71
2022/05/13 14:26:50;;;;;;;3.47;2.90;;;;;;;;;;5053393;28;20443;-71
2022/05/13 14:29:17;;;;;;;5.27;3.10;;;;;;;;;;5053636;28;20448;-71
2022/05/13 14:31:47;;;;;;;4.70;3.37;;;;;;;;;;5053744;28;20491;-71
2022/05/13 14:34:17;;;;;;;4.47;3.60;;;;;;;;;;5053104;28;20885;-71
2022/05/13 14:36:46;;;;;;;4.93;3.20;;;;;;;;;;5054395;28;20435;-71
2022/05/13 14:42:03;;;;;;;6.50;3.57;;;;;;;;;;5027496;28;20490;-71
2022/05/13 14:44:32;;;;;;;5.17;3.10;;;;;;;;;;5053080;28;20949;-71
2022/05/13 14:47:01;;;;;;;5.77;3.00;;;;;;;;;;5053424;28;20483;-71
2022/05/13 14:49:38;;;;;;;5.00;2.97;;;;;;;;;;5052951;28;20997;-72
2022/05/13 14:52:05;;;;;;;9.03;3.40;;;;;;;;;;5053080;28;20436;-71
2022/05/13 14:54:34;;;;;;;5.17;3.23;;;;;;;;;;5053219;28;20483;-71
2022/05/13 14:57:03;;;;;;;6.03;3.60;;;;;;;;;;5053625;28;20442;-71
2022/05/13 14:59:32;;;;;;;6.60;3.40;;;;;;;;;;5052528;28;20938;-71
2022/05/13 15:02:00;;;;;;;5.17;3.40;;;;;;;;;;5052832;28;20820;-72
2022/05/13 15:04:28;;;;;;;11.00;3.67;;;;;;;;;;5054243;28;20459;-73
2022/05/13 15:06:57;;;;;;;8.20;3.23;;;;;;;;;;5057789;28;20443;-71
2022/05/13 15:09:26;;;;;;;8.60;3.90;;;;;;;;;;5057291;28;20447;-72
2022/05/13 15:11:55;;;;;;;4.97;3.60;;;;;;;;;;5057345;28;20556;-72
2022/05/13 15:14:23;;;;;;;4.17;3.07;;;;;;;;;;5056786;28;20445;-72
2022/05/13 15:16:50;;;;;;;6.47;4.13;;;;;;;;;;5057254;28;20437;-72
2022/05/13 15:22:07;;;;;;;9.27;3.77;;;;;;;;;;5056924;28;20929;-72
2022/05/13 15:24:36;;;;;;;5.80;3.90;;;;;;;;;;5057126;28;20425;-71
2022/05/13 15:27:08;;;;;;;6.63;3.43;;;;;;;;;;5056665;28;20455;-71
2022/05/13 15:29:37;;;;;;;9.10;5.33;;;;;;;;;;5056570;28;20424;-71
2022/05/13 15:32:05;;;;;;;4.60;3.93;;;;;;;;;;5056886;28;20949;-72
2022/05/13 15:34:32;;;;;;;8.47;4.30;;;;;;;;;;5056373;28;20444;-71
2022/05/13 15:36:59;;;;;;;4.90;3.70;;;;;;;;;;5056420;28;20963;-72